createdAt,value
2022-10-18T00:00:54.474Z,64.13
2022-10-18T00:05:59.293Z,65.18
2022-10-18T00:11:04.425Z,65.07
2022-10-18T00:16:13.763Z,65.21
2022-10-18T00:21:20.957Z,65.90
2022-10-18T00:26:26.549Z,66.34
2022-10-18T00:31:33.691Z,65.72
2022-10-18T00:36:37.682Z,66.09
2022-10-18T00:41:41.726Z,67.16
2022-10-18T00:46:50.449Z,67.62
2022-10-18T00:52:02.879Z,67.33
2022-10-18T00:57:07.759Z,66.50
2022-10-18T01:02:15.164Z,66.55
2022-10-18T01:07:32.601Z,65.87
2022-10-18T01:12:45.966Z,66.03
2022-10-18T01:18:00.915Z,66.22
2022-10-18T01:23:09.842Z,64.89
2022-10-18T01:28:40.227Z,65.93
2022-10-18T01:33:51.224Z,65.99
2022-10-18T01:39:00.140Z,65.93
2022-10-18T01:44:08.538Z,66.93
2022-10-18T01:49:14.411Z,67.08
2022-10-18T01:54:23.600Z,68.34
2022-10-18T01:59:55.504Z,68.32
2022-10-18T02:05:12.686Z,68.21
2022-10-18T02:10:23.798Z,67.45
2022-10-18T02:15:32.413Z,67.96
2022-10-18T02:20:39.828Z,69.31
2022-10-18T02:25:43.872Z,69.38
2022-10-18T02:30:54.216Z,69.12
2022-10-18T02:36:06.100Z,71.98
2022-10-18T02:41:13.258Z,72.77
2022-10-18T02:46:19.020Z,71.37
2022-10-18T02:51:25.342Z,70.60
2022-10-18T02:56:30.341Z,71.17
2022-10-18T03:01:34.652Z,71.41
2022-10-18T03:06:40.187Z,71.25
2022-10-18T03:11:44.955Z,71.37
2022-10-18T03:16:50.211Z,70.98
2022-10-18T03:21:56.969Z,71.30
2022-10-18T03:27:00.957Z,72.41
2022-10-18T03:32:05.325Z,72.71
2022-10-18T03:37:11.274Z,70.77
2022-10-18T03:42:15.280Z,70.31
2022-10-18T03:47:19.581Z,69.12
2022-10-18T03:52:25.028Z,69.13
2022-10-18T03:57:31.684Z,68.56
2022-10-18T04:02:39.315Z,67.95
2022-10-18T04:07:45.975Z,67.67
2022-10-18T04:12:50.221Z,67.94
2022-10-18T04:17:54.813Z,68.28
2022-10-18T04:23:01.364Z,68.23
2022-10-18T04:28:06.219Z,69.02
2022-10-18T04:33:10.938Z,68.65
2022-10-18T04:38:19.111Z,68.73
2022-10-18T04:43:25.611Z,67.95
2022-10-18T04:48:29.805Z,68.31
2022-10-18T04:53:35.205Z,68.81
2022-10-18T04:58:40.316Z,68.50
2022-10-18T05:03:45.721Z,68.26
2022-10-18T05:08:51.477Z,69.26
2022-10-18T05:13:56.104Z,69.04
2022-10-18T05:19:00.701Z,68.31
2022-10-18T05:24:07.002Z,66.84
2022-10-18T05:29:11.948Z,68.27
2022-10-18T05:34:16.895Z,67.40
2022-10-18T05:39:22.451Z,66.84
2022-10-18T05:44:26.588Z,66.06
2022-10-18T05:49:30.876Z,65.83
2022-10-18T05:54:37.848Z,64.89
2022-10-18T05:59:43.165Z,62.90
2022-10-18T06:04:47.221Z,62.28
2022-10-18T06:09:52.623Z,61.78
2022-10-18T06:14:56.719Z,62.78
2022-10-18T06:20:02.075Z,61.35
2022-10-18T06:25:08.265Z,57.47
2022-10-18T09:50:50.076Z,25.07
2022-10-18T09:56:02.388Z,24.01
2022-10-18T10:01:07.336Z,23.42
2022-10-18T10:06:29.734Z,23.09
2022-10-18T10:11:40.512Z,24.72
2022-10-18T10:16:49.492Z,24.00
2022-10-18T10:21:59.794Z,25.86
2022-10-18T10:27:07.115Z,26.05
2022-10-18T10:32:19.753Z,26.60
2022-10-18T10:37:36.629Z,25.41
2022-10-18T10:43:32.891Z,25.96
2022-10-18T10:48:47.940Z,24.17
2022-10-18T10:54:01.171Z,23.71
2022-10-18T10:59:14.891Z,23.44
2022-10-18T11:04:28.561Z,23.67
2022-10-18T11:09:44.793Z,23.47
2022-10-18T11:14:56.252Z,23.17
2022-10-18T11:20:17.843Z,23.55
2022-10-18T11:25:26.789Z,23.99
2022-10-18T11:30:43.836Z,23.85
2022-10-18T11:35:53.795Z,23.80
2022-10-18T11:41:22.690Z,24.54
2022-10-18T11:46:42.563Z,23.69
2022-10-18T11:52:08.751Z,24.47
2022-10-18T11:57:40.811Z,24.32
2022-10-18T12:03:04.431Z,23.55
2022-10-18T12:08:14.993Z,23.77
2022-10-18T12:13:26.888Z,22.53
2022-10-18T12:18:33.314Z,22.37
2022-10-18T12:23:43.880Z,21.53
2022-10-18T12:28:58.762Z,21.96
2022-10-18T12:34:13.493Z,21.64
2022-10-18T12:39:32.282Z,21.35
2022-10-18T12:44:50.569Z,21.58
2022-10-18T12:50:00.248Z,21.29
2022-10-18T12:55:32.263Z,20.65
2022-10-18T13:01:05.510Z,21.30
2022-10-18T13:06:09.604Z,22.02
2022-10-18T13:11:36.063Z,21.62
2022-10-18T13:16:50.615Z,20.23
2022-10-18T13:22:12.182Z,20.63
2022-10-18T13:27:37.090Z,21.07
2022-10-18T13:32:51.148Z,20.68
2022-10-18T13:37:59.967Z,22.05
2022-10-18T13:43:37.313Z,21.73
2022-10-18T13:48:50.881Z,22.32
2022-10-18T13:54:02.727Z,21.72
2022-10-18T13:59:24.016Z,21.95
2022-10-18T14:05:23.863Z,21.36
2022-10-18T14:10:50.118Z,21.48
2022-10-18T14:16:08.461Z,22.10
2022-10-18T14:21:22.089Z,22.39
2022-10-18T14:26:29.527Z,21.70
2022-10-18T14:31:34.636Z,22.62
2022-10-18T14:36:42.715Z,23.50
2022-10-18T14:41:50.476Z,23.57
2022-10-18T14:47:00.873Z,23.57
2022-10-18T14:52:15.821Z,23.11
2022-10-18T14:57:24.986Z,25.60
2022-10-18T15:02:30.686Z,26.17
2022-10-18T15:07:37.387Z,23.67
2022-10-18T15:13:08.286Z,24.49
2022-10-18T15:18:09.589Z,24.87
2022-10-18T15:23:25.345Z,25.83
2022-10-18T15:28:32.329Z,26.19
2022-10-18T15:33:36.702Z,30.80
2022-10-18T15:38:46.228Z,34.45
2022-10-18T15:43:53.200Z,36.44
2022-10-18T15:49:21.979Z,38.15
2022-10-18T15:54:32.440Z,39.38
2022-10-18T15:59:37.532Z,40.36
2022-10-18T16:04:41.800Z,41.88
2022-10-18T16:09:47.125Z,44.56
2022-10-18T16:14:53.039Z,43.96
2022-10-18T16:19:57.064Z,43.01
2022-10-18T16:25:02.429Z,42.79
2022-10-18T16:30:14.548Z,44.12
2022-10-18T16:35:19.405Z,44.19
2022-10-18T16:40:27.134Z,44.08
2022-10-18T16:45:31.353Z,44.91
2022-10-18T16:50:35.561Z,45.93
2022-10-18T16:55:43.718Z,46.10
2022-10-18T17:00:48.260Z,47.47
2022-10-18T17:05:52.368Z,48.36
2022-10-18T17:11:00.095Z,48.28
2022-10-18T17:16:04.601Z,47.64
2022-10-18T17:21:11.007Z,48.15
2022-10-18T17:26:28.438Z,49.29
2022-10-18T17:31:35.742Z,49.12
2022-10-18T17:36:40.360Z,50.42
2022-10-18T17:41:45.729Z,50.38
2022-10-18T17:46:49.862Z,51.11
2022-10-18T17:51:54.336Z,53.07
2022-10-18T17:56:59.860Z,52.86
2022-10-18T18:02:05.406Z,52.72
2022-10-18T18:07:09.705Z,53.40
2022-10-18T18:12:16.129Z,54.01
2022-10-18T18:17:28.714Z,55.21
2022-10-18T18:22:41.848Z,56.15
2022-10-18T18:27:48.309Z,55.51
2022-10-18T18:32:52.411Z,55.88
2022-10-18T18:37:56.669Z,55.44
2022-10-18T18:43:12.409Z,56.04
2022-10-18T18:48:26.776Z,56.22
2022-10-18T18:53:31.763Z,57.24
2022-10-18T18:58:39.474Z,57.89
2022-10-18T19:03:44.549Z,58.33
2022-10-18T19:08:49.691Z,57.26
2022-10-18T19:13:55.728Z,57.21
2022-10-18T19:19:01.635Z,57.72
2022-10-18T19:24:07.445Z,57.37
2022-10-18T19:29:15.662Z,58.17
2022-10-18T19:34:22.999Z,59.19
2022-10-18T19:39:30.760Z,60.28
2022-10-18T19:44:38.188Z,59.87
2022-10-18T19:49:43.184Z,58.89
2022-10-18T19:54:49.776Z,59.07
2022-10-18T19:59:56.711Z,58.49
2022-10-18T20:05:02.385Z,58.88
2022-10-18T20:10:07.461Z,58.29
2022-10-18T20:15:13.533Z,58.90
2022-10-18T20:20:17.669Z,59.90
2022-10-18T20:25:22.209Z,60.06
2022-10-18T20:30:31.754Z,60.80
2022-10-18T20:35:36.709Z,61.07
2022-10-18T20:40:42.087Z,61.69
2022-10-18T20:45:47.602Z,61.74
2022-10-18T20:50:53.223Z,61.65
2022-10-18T20:56:05.243Z,61.43
2022-10-18T21:01:13.361Z,60.54
2022-10-18T21:06:19.781Z,61.77
2022-10-18T21:11:25.434Z,62.02
2022-10-18T21:16:31.913Z,61.03
2022-10-18T21:21:36.012Z,62.47
2022-10-18T21:26:44.270Z,61.72
2022-10-18T21:31:53.659Z,61.57
2022-10-18T21:36:58.421Z,63.15
2022-10-18T21:42:03.728Z,64.02
2022-10-18T21:47:11.188Z,65.85
2022-10-18T21:52:15.517Z,66.09
2022-10-18T21:57:21.046Z,66.29
2022-10-18T22:02:26.939Z,66.35
2022-10-18T22:07:32.493Z,65.67
2022-10-18T22:12:37.516Z,64.99
2022-10-18T22:17:43.285Z,65.68
2022-10-18T22:22:47.581Z,64.98
2022-10-18T22:27:51.645Z,65.18
2022-10-18T22:32:57.255Z,64.71
2022-10-18T22:38:01.769Z,65.97
2022-10-18T22:43:05.865Z,64.89
2022-10-18T22:48:11.251Z,65.03
2022-10-18T22:53:15.401Z,65.21
2022-10-18T22:58:20.219Z,65.02
2022-10-18T23:03:25.654Z,64.90
2022-10-18T23:08:29.606Z,64.67
2022-10-18T23:13:37.365Z,63.90
2022-10-18T23:18:45.030Z,63.34
2022-10-18T23:23:49.062Z,63.98
2022-10-18T23:28:55.184Z,63.69
2022-10-18T23:34:02.805Z,64.36
2022-10-18T23:39:07.090Z,65.10
2022-10-18T23:44:11.522Z,64.88
2022-10-18T23:49:16.963Z,64.71
2022-10-18T23:54:21.118Z,66.09
2022-10-18T23:59:26.837Z,65.86
